International Virtual Aviation Organisation

Russian Federation and Kazakhstan MCD

 

Карточка аэропорта UWKD

Внимание!
Информация на этой странице в стадии наполнения.
Если вы не увидели какой-то информации, или заметили неточность - пожалуйста сообщите нам!
Спасибо!
Команда RU-STAFF
Название аэропортаКазань
Название аэропорта (англ.)Kazan
Превышение413 ft. (125.9 m.)
Координаты55°36.498', 49°16.668'
Высота перехода900m
Эшелон переходаQFE>=749mm:FL050; QFE<749=>722:FL060; QFE<722:FL070
Коды ответчика6732-6737
Зона ОрВДСамара РПИ (UWWW)
Данные METARUWKD 130930Z 16002MPS 130V190 1500 0900W R11/0900D FZFG OVC002 M07/M08 Q1025 R11/710045 NOSIG RMK QBB060 QFE759/1012
Проноз погоды (TAF)UWKD 130800Z 1309/1409 VRB01MPS 0500 FZFG VV002 TXM06/1311Z TNM07/1406Z TEMPO 1309/1312 2000 BR BKN004 FM131200 18003MPS 9999 BKN016 TEMPO 1315/1321 2000 BR BKN003 TEMPO 1321/1406 0500 FZFG BKN002
NOTAMshow/hide NOTAM
AWOS   TABLE

Информация о ВПП

ВПП Длина ВПП (м.) Покрытие Курс ВПП Частота ILS
113750Цементобетон112110.5
293750Цементобетон292111.7

Диспетчерские позиции

Позывной Наименование органа УВД Частота
UWKD_R_APPКазань-Круг119.400
UWKD_TWRКазань-Старт120.300
UWKD_GNDКазань-Руление121.7



Спутниковое изображение